sensor_id;sensor_type;location;lat;lon;timestamp;P1;durP1;ratioP1;P2;durP2;ratioP2
55082;SDS011;40978;52.850;6.506;2023-05-07T00:01:40;11.00;;;9.82;;
55082;SDS011;40978;52.850;6.506;2023-05-07T00:04:06;10.55;;;9.48;;
55082;SDS011;40978;52.850;6.506;2023-05-07T00:06:32;10.63;;;9.50;;
55082;SDS011;40978;52.850;6.506;2023-05-07T00:08:58;10.65;;;9.55;;
55082;SDS011;40978;52.850;6.506;2023-05-07T00:11:25;11.25;;;9.63;;
55082;SDS011;40978;52.850;6.506;2023-05-07T00:13:51;11.93;;;10.05;;
55082;SDS011;40978;52.850;6.506;2023-05-07T00:16:16;11.73;;;10.27;;
55082;SDS011;40978;52.850;6.506;2023-05-07T00:18:42;10.98;;;9.88;;
55082;SDS011;40978;52.850;6.506;2023-05-07T00:21:08;11.57;;;9.70;;
55082;SDS011;40978;52.850;6.506;2023-05-07T00:23:34;10.55;;;9.45;;
55082;SDS011;40978;52.850;6.506;2023-05-07T00:25:59;10.73;;;9.40;;
55082;SDS011;40978;52.850;6.506;2023-05-07T00:28:25;12.07;;;10.00;;
55082;SDS011;40978;52.850;6.506;2023-05-07T00:30:51;13.40;;;9.68;;
55082;SDS011;40978;52.850;6.506;2023-05-07T00:33:17;11.52;;;9.73;;
55082;SDS011;40978;52.850;6.506;2023-05-07T00:35:43;13.20;;;10.02;;
55082;SDS011;40978;52.850;6.506;2023-05-07T00:38:08;12.13;;;10.88;;
55082;SDS011;40978;52.850;6.506;2023-05-07T00:40:34;13.27;;;10.52;;
55082;SDS011;40978;52.850;6.506;2023-05-07T00:43:00;11.68;;;9.95;;
55082;SDS011;40978;52.850;6.506;2023-05-07T00:45:26;13.88;;;11.25;;
55082;SDS011;40978;52.850;6.506;2023-05-07T00:47:56;13.52;;;11.32;;
55082;SDS011;40978;52.850;6.506;2023-05-07T00:50:23;14.02;;;11.65;;
55082;SDS011;40978;52.850;6.506;2023-05-07T00:52:49;13.73;;;12.02;;
55082;SDS011;40978;52.850;6.506;2023-05-07T00:55:15;13.85;;;12.15;;
55082;SDS011;40978;52.850;6.506;2023-05-07T00:57:41;15.20;;;12.40;;
55082;SDS011;40978;52.850;6.506;2023-05-07T01:00:07;16.73;;;13.18;;
55082;SDS011;40978;52.850;6.506;2023-05-07T01:02:34;15.02;;;13.43;;
55082;SDS011;40978;52.850;6.506;2023-05-07T01:05:01;16.15;;;14.13;;
55082;SDS011;40978;52.850;6.506;2023-05-07T01:07:29;17.77;;;15.20;;
55082;SDS011;40978;52.850;6.506;2023-05-07T01:09:55;19.20;;;15.13;;
55082;SDS011;40978;52.850;6.506;2023-05-07T01:12:22;18.17;;;15.15;;
55082;SDS011;40978;52.850;6.506;2023-05-07T01:14:49;16.35;;;14.55;;
55082;SDS011;40978;52.850;6.506;2023-05-07T01:17:15;18.65;;;15.52;;
55082;SDS011;40978;52.850;6.506;2023-05-07T01:19:42;18.67;;;16.55;;
55082;SDS011;40978;52.850;6.506;2023-05-07T01:22:08;18.70;;;16.80;;
55082;SDS011;40978;52.850;6.506;2023-05-07T01:24:39;20.45;;;17.40;;
55082;SDS011;40978;52.850;6.506;2023-05-07T01:27:06;19.85;;;17.80;;
55082;SDS011;40978;52.850;6.506;2023-05-07T01:29:32;20.45;;;18.17;;
55082;SDS011;40978;52.850;6.506;2023-05-07T01:31:58;20.77;;;18.67;;
55082;SDS011;40978;52.850;6.506;2023-05-07T01:34:25;22.95;;;19.70;;
55082;SDS011;40978;52.850;6.506;2023-05-07T01:36:54;25.23;;;20.42;;
55082;SDS011;40978;52.850;6.506;2023-05-07T01:39:26;21.55;;;19.30;;
55082;SDS011;40978;52.850;6.506;2023-05-07T01:41:54;23.70;;;21.05;;
55082;SDS011;40978;52.850;6.506;2023-05-07T01:44:21;22.20;;;19.40;;
55082;SDS011;40978;52.850;6.506;2023-05-07T01:46:47;24.15;;;19.98;;
55082;SDS011;40978;52.850;6.506;2023-05-07T01:49:14;23.58;;;21.13;;
55082;SDS011;40978;52.850;6.506;2023-05-07T01:51:40;23.40;;;20.90;;
55082;SDS011;40978;52.850;6.506;2023-05-07T01:54:06;23.20;;;20.70;;
55082;SDS011;40978;52.850;6.506;2023-05-07T01:56:33;22.83;;;20.33;;
55082;SDS011;40978;52.850;6.506;2023-05-07T01:58:59;23.25;;;20.83;;
55082;SDS011;40978;52.850;6.506;2023-05-07T02:01:25;23.52;;;21.00;;
55082;SDS011;40978;52.850;6.506;2023-05-07T02:03:51;23.98;;;21.35;;
55082;SDS011;40978;52.850;6.506;2023-05-07T02:06:16;22.80;;;20.23;;
55082;SDS011;40978;52.850;6.506;2023-05-07T02:08:42;24.92;;;21.52;;
55082;SDS011;40978;52.850;6.506;2023-05-07T02:11:08;22.25;;;20.00;;
55082;SDS011;40978;52.850;6.506;2023-05-07T02:13:34;24.38;;;21.63;;
55082;SDS011;40978;52.850;6.506;2023-05-07T02:16:00;23.58;;;20.70;;
55082;SDS011;40978;52.850;6.506;2023-05-07T02:18:26;23.63;;;21.13;;
55082;SDS011;40978;52.850;6.506;2023-05-07T02:20:52;24.38;;;21.00;;
55082;SDS011;40978;52.850;6.506;2023-05-07T02:23:17;25.10;;;22.55;;
55082;SDS011;40978;52.850;6.506;2023-05-07T02:25:43;26.73;;;22.65;;
55082;SDS011;40978;52.850;6.506;2023-05-07T02:28:09;25.95;;;23.08;;
55082;SDS011;40978;52.850;6.506;2023-05-07T02:30:35;25.23;;;22.55;;
55082;SDS011;40978;52.850;6.506;2023-05-07T02:33:02;27.02;;;22.52;;
55082;SDS011;40978;52.850;6.506;2023-05-07T02:35:28;25.50;;;22.63;;
55082;SDS011;40978;52.850;6.506;2023-05-07T02:37:54;26.27;;;23.55;;
55082;SDS011;40978;52.850;6.506;2023-05-07T02:40:19;24.92;;;22.17;;
55082;SDS011;40978;52.850;6.506;2023-05-07T02:42:45;26.52;;;23.45;;
55082;SDS011;40978;52.850;6.506;2023-05-07T02:45:11;25.88;;;23.10;;
55082;SDS011;40978;52.850;6.506;2023-05-07T02:47:36;26.90;;;24.10;;
55082;SDS011;40978;52.850;6.506;2023-05-07T02:50:02;27.42;;;24.50;;
55082;SDS011;40978;52.850;6.506;2023-05-07T02:52:28;29.65;;;24.38;;
55082;SDS011;40978;52.850;6.506;2023-05-07T02:54:54;29.13;;;24.83;;
55082;SDS011;40978;52.850;6.506;2023-05-07T02:57:20;28.73;;;25.30;;
55082;SDS011;40978;52.850;6.506;2023-05-07T02:59:46;29.80;;;26.10;;
55082;SDS011;40978;52.850;6.506;2023-05-07T03:02:11;27.77;;;24.08;;
55082;SDS011;40978;52.850;6.506;2023-05-07T03:04:38;29.65;;;26.50;;
55082;SDS011;40978;52.850;6.506;2023-05-07T03:07:04;27.33;;;24.35;;
55082;SDS011;40978;52.850;6.506;2023-05-07T03:09:30;29.05;;;25.92;;
55082;SDS011;40978;52.850;6.506;2023-05-07T03:11:56;29.30;;;26.25;;
55082;SDS011;40978;52.850;6.506;2023-05-07T03:14:22;28.73;;;25.67;;
55082;SDS011;40978;52.850;6.506;2023-05-07T03:16:48;29.92;;;26.75;;
55082;SDS011;40978;52.850;6.506;2023-05-07T03:19:15;33.17;;;28.58;;
55082;SDS011;40978;52.850;6.506;2023-05-07T03:21:41;31.45;;;27.42;;
55082;SDS011;40978;52.850;6.506;2023-05-07T03:24:06;30.70;;;27.38;;
55082;SDS011;40978;52.850;6.506;2023-05-07T03:26:32;31.02;;;27.70;;
55082;SDS011;40978;52.850;6.506;2023-05-07T03:28:58;34.72;;;29.42;;
55082;SDS011;40978;52.850;6.506;2023-05-07T03:31:23;32.35;;;28.23;;
55082;SDS011;40978;52.850;6.506;2023-05-07T03:33:53;34.50;;;29.25;;
55082;SDS011;40978;52.850;6.506;2023-05-07T03:36:20;32.88;;;29.27;;
55082;SDS011;40978;52.850;6.506;2023-05-07T03:38:46;34.85;;;30.95;;
55082;SDS011;40978;52.850;6.506;2023-05-07T03:41:13;35.67;;;30.63;;
55082;SDS011;40978;52.850;6.506;2023-05-07T03:43:39;34.92;;;30.42;;
55082;SDS011;40978;52.850;6.506;2023-05-07T03:46:04;39.50;;;30.90;;
55082;SDS011;40978;52.850;6.506;2023-05-07T03:48:30;36.97;;;32.05;;
55082;SDS011;40978;52.850;6.506;2023-05-07T03:50:57;35.90;;;30.70;;
55082;SDS011;40978;52.850;6.506;2023-05-07T03:53:23;36.58;;;31.40;;
55082;SDS011;40978;52.850;6.506;2023-05-07T03:55:48;38.00;;;32.28;;
55082;SDS011;40978;52.850;6.506;2023-05-07T03:58:14;38.63;;;32.67;;
55082;SDS011;40978;52.850;6.506;2023-05-07T04:00:40;36.05;;;31.90;;
55082;SDS011;40978;52.850;6.506;2023-05-07T04:03:06;39.17;;;32.55;;
55082;SDS011;40978;52.850;6.506;2023-05-07T04:05:32;38.47;;;32.70;;
55082;SDS011;40978;52.850;6.506;2023-05-07T04:07:58;38.63;;;32.42;;
55082;SDS011;40978;52.850;6.506;2023-05-07T04:10:24;39.72;;;34.17;;
55082;SDS011;40978;52.850;6.506;2023-05-07T04:12:50;40.05;;;31.17;;
55082;SDS011;40978;52.850;6.506;2023-05-07T04:15:16;38.83;;;32.42;;
55082;SDS011;40978;52.850;6.506;2023-05-07T04:17:42;36.88;;;32.63;;
55082;SDS011;40978;52.850;6.506;2023-05-07T04:20:09;38.53;;;31.33;;
55082;SDS011;40978;52.850;6.506;2023-05-07T04:22:39;37.33;;;32.55;;
55082;SDS011;40978;52.850;6.506;2023-05-07T04:25:05;38.97;;;33.10;;
55082;SDS011;40978;52.850;6.506;2023-05-07T04:27:31;39.53;;;32.35;;
55082;SDS011;40978;52.850;6.506;2023-05-07T04:29:57;42.47;;;32.92;;
55082;SDS011;40978;52.850;6.506;2023-05-07T04:32:23;40.60;;;33.25;;
55082;SDS011;40978;52.850;6.506;2023-05-07T04:34:50;39.22;;;32.97;;
55082;SDS011;40978;52.850;6.506;2023-05-07T04:37:16;38.88;;;32.65;;
55082;SDS011;40978;52.850;6.506;2023-05-07T04:39:42;39.42;;;34.17;;
55082;SDS011;40978;52.850;6.506;2023-05-07T04:42:07;38.03;;;31.15;;
55082;SDS011;40978;52.850;6.506;2023-05-07T04:44:34;36.10;;;31.58;;
55082;SDS011;40978;52.850;6.506;2023-05-07T04:47:02;36.60;;;31.48;;
55082;SDS011;40978;52.850;6.506;2023-05-07T04:49:27;35.80;;;31.80;;
55082;SDS011;40978;52.850;6.506;2023-05-07T04:51:53;37.63;;;32.20;;
55082;SDS011;40978;52.850;6.506;2023-05-07T04:54:19;35.47;;;30.58;;
55082;SDS011;40978;52.850;6.506;2023-05-07T04:56:44;36.65;;;32.58;;
55082;SDS011;40978;52.850;6.506;2023-05-07T04:59:10;35.15;;;30.73;;
55082;SDS011;40978;52.850;6.506;2023-05-07T05:01:36;36.78;;;29.80;;
55082;SDS011;40978;52.850;6.506;2023-05-07T05:04:01;35.00;;;29.95;;
55082;SDS011;40978;52.850;6.506;2023-05-07T05:06:27;33.95;;;29.23;;
55082;SDS011;40978;52.850;6.506;2023-05-07T05:08:53;33.10;;;28.35;;
55082;SDS011;40978;52.850;6.506;2023-05-07T05:11:19;34.28;;;30.55;;
55082;SDS011;40978;52.850;6.506;2023-05-07T05:13:45;33.65;;;29.95;;
55082;SDS011;40978;52.850;6.506;2023-05-07T05:16:14;32.08;;;28.50;;
55082;SDS011;40978;52.850;6.506;2023-05-07T05:18:40;30.98;;;27.80;;
55082;SDS011;40978;52.850;6.506;2023-05-07T05:21:05;33.10;;;29.08;;
55082;SDS011;40978;52.850;6.506;2023-05-07T05:23:31;33.92;;;27.75;;
55082;SDS011;40978;52.850;6.506;2023-05-07T05:25:57;32.00;;;28.42;;
55082;SDS011;40978;52.850;6.506;2023-05-07T05:28:23;30.58;;;27.00;;
55082;SDS011;40978;52.850;6.506;2023-05-07T05:30:49;30.27;;;26.58;;
55082;SDS011;40978;52.850;6.506;2023-05-07T05:33:15;31.20;;;27.67;;
55082;SDS011;40978;52.850;6.506;2023-05-07T05:35:41;29.73;;;26.40;;
55082;SDS011;40978;52.850;6.506;2023-05-07T05:38:07;28.17;;;25.10;;
55082;SDS011;40978;52.850;6.506;2023-05-07T05:40:33;29.38;;;26.33;;
55082;SDS011;40978;52.850;6.506;2023-05-07T05:42:59;29.67;;;26.40;;
55082;SDS011;40978;52.850;6.506;2023-05-07T05:45:25;28.33;;;25.05;;
55082;SDS011;40978;52.850;6.506;2023-05-07T05:47:51;27.35;;;24.58;;
55082;SDS011;40978;52.850;6.506;2023-05-07T05:50:16;27.58;;;24.65;;
55082;SDS011;40978;52.850;6.506;2023-05-07T05:52:42;27.33;;;23.85;;
55082;SDS011;40978;52.850;6.506;2023-05-07T05:55:08;27.58;;;24.58;;
55082;SDS011;40978;52.850;6.506;2023-05-07T05:57:34;27.45;;;24.60;;
55082;SDS011;40978;52.850;6.506;2023-05-07T06:00:00;28.95;;;25.75;;
55082;SDS011;40978;52.850;6.506;2023-05-07T06:02:27;27.63;;;24.83;;
55082;SDS011;40978;52.850;6.506;2023-05-07T06:04:53;27.52;;;24.70;;
55082;SDS011;40978;52.850;6.506;2023-05-07T06:07:19;27.88;;;24.90;;
55082;SDS011;40978;52.850;6.506;2023-05-07T06:09:45;28.08;;;25.08;;
55082;SDS011;40978;52.850;6.506;2023-05-07T06:12:11;29.45;;;26.48;;
55082;SDS011;40978;52.850;6.506;2023-05-07T06:14:37;28.35;;;25.27;;
55082;SDS011;40978;52.850;6.506;2023-05-07T06:17:02;26.98;;;24.25;;
55082;SDS011;40978;52.850;6.506;2023-05-07T06:19:28;28.20;;;24.90;;
55082;SDS011;40978;52.850;6.506;2023-05-07T06:21:54;29.33;;;26.20;;
55082;SDS011;40978;52.850;6.506;2023-05-07T06:24:21;27.45;;;24.48;;
55082;SDS011;40978;52.850;6.506;2023-05-07T06:26:47;28.30;;;25.25;;
55082;SDS011;40978;52.850;6.506;2023-05-07T06:29:13;28.40;;;25.55;;
55082;SDS011;40978;52.850;6.506;2023-05-07T06:31:39;30.20;;;27.10;;
55082;SDS011;40978;52.850;6.506;2023-05-07T06:34:05;30.10;;;25.80;;
55082;SDS011;40978;52.850;6.506;2023-05-07T06:36:31;30.85;;;25.70;;
55082;SDS011;40978;52.850;6.506;2023-05-07T06:38:56;30.65;;;27.38;;
55082;SDS011;40978;52.850;6.506;2023-05-07T06:41:22;29.23;;;26.20;;
55082;SDS011;40978;52.850;6.506;2023-05-07T06:43:48;30.95;;;27.50;;
55082;SDS011;40978;52.850;6.506;2023-05-07T06:46:14;29.05;;;25.90;;
55082;SDS011;40978;52.850;6.506;2023-05-07T06:48:40;31.10;;;27.02;;
55082;SDS011;40978;52.850;6.506;2023-05-07T06:51:05;29.05;;;25.95;;
55082;SDS011;40978;52.850;6.506;2023-05-07T06:53:31;29.98;;;26.85;;
55082;SDS011;40978;52.850;6.506;2023-05-07T06:55:57;30.08;;;26.90;;
55082;SDS011;40978;52.850;6.506;2023-05-07T06:58:22;30.30;;;26.30;;
55082;SDS011;40978;52.850;6.506;2023-05-07T07:00:48;28.38;;;25.27;;
55082;SDS011;40978;52.850;6.506;2023-05-07T07:03:14;29.50;;;26.30;;
55082;SDS011;40978;52.850;6.506;2023-05-07T07:05:40;29.73;;;26.55;;
55082;SDS011;40978;52.850;6.506;2023-05-07T07:08:06;29.27;;;26.13;;
55082;SDS011;40978;52.850;6.506;2023-05-07T07:10:32;29.17;;;26.05;;
55082;SDS011;40978;52.850;6.506;2023-05-07T07:12:58;30.52;;;27.23;;
55082;SDS011;40978;52.850;6.506;2023-05-07T07:15:24;30.17;;;26.90;;
55082;SDS011;40978;52.850;6.506;2023-05-07T07:17:50;30.45;;;27.15;;
55082;SDS011;40978;52.850;6.506;2023-05-07T07:20:16;30.10;;;26.95;;
55082;SDS011;40978;52.850;6.506;2023-05-07T07:22:41;31.48;;;28.13;;
55082;SDS011;40978;52.850;6.506;2023-05-07T07:25:07;32.50;;;27.85;;
55082;SDS011;40978;52.850;6.506;2023-05-07T07:27:33;29.50;;;26.48;;
55082;SDS011;40978;52.850;6.506;2023-05-07T07:30:00;29.92;;;26.73;;
55082;SDS011;40978;52.850;6.506;2023-05-07T07:32:25;31.05;;;27.73;;
55082;SDS011;40978;52.850;6.506;2023-05-07T07:34:51;30.05;;;26.65;;
55082;SDS011;40978;52.850;6.506;2023-05-07T07:37:17;31.40;;;28.00;;
55082;SDS011;40978;52.850;6.506;2023-05-07T07:39:43;34.15;;;30.45;;
55082;SDS011;40978;52.850;6.506;2023-05-07T07:42:08;32.05;;;28.73;;
55082;SDS011;40978;52.850;6.506;2023-05-07T07:44:34;30.85;;;27.75;;
55082;SDS011;40978;52.850;6.506;2023-05-07T07:47:00;32.13;;;28.20;;
55082;SDS011;40978;52.850;6.506;2023-05-07T07:49:26;31.08;;;27.77;;
55082;SDS011;40978;52.850;6.506;2023-05-07T07:51:52;34.55;;;28.60;;
55082;SDS011;40978;52.850;6.506;2023-05-07T07:54:18;31.88;;;28.40;;
55082;SDS011;40978;52.850;6.506;2023-05-07T07:56:43;33.28;;;29.92;;
55082;SDS011;40978;52.850;6.506;2023-05-07T07:59:09;30.75;;;27.13;;
55082;SDS011;40978;52.850;6.506;2023-05-07T08:01:35;31.90;;;28.48;;
55082;SDS011;40978;52.850;6.506;2023-05-07T08:04:00;31.88;;;27.65;;
55082;SDS011;40978;52.850;6.506;2023-05-07T08:06:28;29.98;;;27.02;;
55082;SDS011;40978;52.850;6.506;2023-05-07T08:08:54;31.27;;;27.98;;
55082;SDS011;40978;52.850;6.506;2023-05-07T08:11:20;29.52;;;26.60;;
55082;SDS011;40978;52.850;6.506;2023-05-07T08:13:46;31.63;;;28.35;;
55082;SDS011;40978;52.850;6.506;2023-05-07T08:16:12;31.08;;;28.05;;
55082;SDS011;40978;52.850;6.506;2023-05-07T08:18:38;30.10;;;27.05;;
55082;SDS011;40978;52.850;6.506;2023-05-07T08:21:04;32.92;;;29.42;;
55082;SDS011;40978;52.850;6.506;2023-05-07T08:23:29;29.70;;;26.55;;
55082;SDS011;40978;52.850;6.506;2023-05-07T08:25:55;31.05;;;27.58;;
55082;SDS011;40978;52.850;6.506;2023-05-07T08:28:21;30.67;;;27.48;;
55082;SDS011;40978;52.850;6.506;2023-05-07T08:30:49;29.95;;;26.95;;
55082;SDS011;40978;52.850;6.506;2023-05-07T08:33:15;30.92;;;27.73;;
55082;SDS011;40978;52.850;6.506;2023-05-07T08:35:41;30.67;;;27.58;;
55082;SDS011;40978;52.850;6.506;2023-05-07T08:38:07;30.08;;;26.90;;
55082;SDS011;40978;52.850;6.506;2023-05-07T08:40:35;31.90;;;28.55;;
55082;SDS011;40978;52.850;6.506;2023-05-07T08:43:03;30.10;;;26.95;;
55082;SDS011;40978;52.850;6.506;2023-05-07T08:45:31;30.65;;;27.33;;
55082;SDS011;40978;52.850;6.506;2023-05-07T08:47:59;29.95;;;26.83;;
55082;SDS011;40978;52.850;6.506;2023-05-07T08:50:28;30.85;;;27.48;;
55082;SDS011;40978;52.850;6.506;2023-05-07T08:52:55;29.92;;;26.80;;
55082;SDS011;40978;52.850;6.506;2023-05-07T08:55:22;29.88;;;26.75;;
55082;SDS011;40978;52.850;6.506;2023-05-07T08:57:50;28.98;;;26.08;;
55082;SDS011;40978;52.850;6.506;2023-05-07T09:00:17;29.98;;;26.95;;
55082;SDS011;40978;52.850;6.506;2023-05-07T09:02:43;29.77;;;26.77;;
55082;SDS011;40978;52.850;6.506;2023-05-07T09:05:09;29.65;;;26.75;;
55082;SDS011;40978;52.850;6.506;2023-05-07T09:07:35;29.50;;;26.48;;
55082;SDS011;40978;52.850;6.506;2023-05-07T09:10:01;29.15;;;26.33;;
55082;SDS011;40978;52.850;6.506;2023-05-07T09:12:28;28.92;;;25.92;;
55082;SDS011;40978;52.850;6.506;2023-05-07T09:14:53;26.80;;;24.02;;
55082;SDS011;40978;52.850;6.506;2023-05-07T09:17:19;29.15;;;26.15;;
55082;SDS011;40978;52.850;6.506;2023-05-07T09:19:45;27.45;;;24.65;;
55082;SDS011;40978;52.850;6.506;2023-05-07T09:22:11;29.77;;;26.58;;
55082;SDS011;40978;52.850;6.506;2023-05-07T09:24:37;27.58;;;24.88;;
55082;SDS011;40978;52.850;6.506;2023-05-07T09:27:03;27.02;;;24.42;;
55082;SDS011;40978;52.850;6.506;2023-05-07T09:29:30;26.15;;;23.65;;
55082;SDS011;40978;52.850;6.506;2023-05-07T09:32:07;27.55;;;24.75;;
55082;SDS011;40978;52.850;6.506;2023-05-07T09:34:34;27.20;;;24.58;;
55082;SDS011;40978;52.850;6.506;2023-05-07T09:37:00;25.73;;;23.23;;
55082;SDS011;40978;52.850;6.506;2023-05-07T09:39:26;25.90;;;23.38;;
55082;SDS011;40978;52.850;6.506;2023-05-07T09:42:04;25.30;;;22.90;;
55082;SDS011;40978;52.850;6.506;2023-05-07T09:44:31;25.65;;;23.25;;
55082;SDS011;40978;52.850;6.506;2023-05-07T09:46:57;26.50;;;23.90;;
55082;SDS011;40978;52.850;6.506;2023-05-07T09:49:26;24.95;;;22.63;;
55082;SDS011;40978;52.850;6.506;2023-05-07T09:51:55;24.33;;;21.92;;
55082;SDS011;40978;52.850;6.506;2023-05-07T09:54:22;24.48;;;22.10;;
55082;SDS011;40978;52.850;6.506;2023-05-07T09:56:48;26.20;;;23.67;;
55082;SDS011;40978;52.850;6.506;2023-05-07T09:59:14;25.08;;;22.77;;
55082;SDS011;40978;52.850;6.506;2023-05-07T10:01:42;22.70;;;20.60;;
55082;SDS011;40978;52.850;6.506;2023-05-07T10:04:08;22.85;;;20.52;;
55082;SDS011;40978;52.850;6.506;2023-05-07T10:06:35;22.38;;;20.30;;
55082;SDS011;40978;52.850;6.506;2023-05-07T10:09:03;23.23;;;21.10;;
55082;SDS011;40978;52.850;6.506;2023-05-07T10:11:36;22.88;;;20.73;;
55082;SDS011;40978;52.850;6.506;2023-05-07T10:14:02;23.13;;;20.80;;
55082;SDS011;40978;52.850;6.506;2023-05-07T10:16:35;23.73;;;21.42;;
55082;SDS011;40978;52.850;6.506;2023-05-07T10:19:05;24.02;;;21.75;;
55082;SDS011;40978;52.850;6.506;2023-05-07T10:21:36;21.65;;;19.65;;
55082;SDS011;40978;52.850;6.506;2023-05-07T10:24:08;21.83;;;19.83;;
55082;SDS011;40978;52.850;6.506;2023-05-07T10:26:39;22.13;;;20.13;;
55082;SDS011;40978;52.850;6.506;2023-05-07T10:29:12;22.85;;;20.58;;
55082;SDS011;40978;52.850;6.506;2023-05-07T10:31:57;23.05;;;20.85;;
55082;SDS011;40978;52.850;6.506;2023-05-07T10:34:41;22.67;;;20.42;;
55082;SDS011;40978;52.850;6.506;2023-05-07T10:37:09;22.55;;;20.45;;
55082;SDS011;40978;52.850;6.506;2023-05-07T10:39:36;22.77;;;20.65;;
55082;SDS011;40978;52.850;6.506;2023-05-07T10:42:12;24.13;;;21.88;;
55082;SDS011;40978;52.850;6.506;2023-05-07T10:44:39;22.50;;;20.40;;
55082;SDS011;40978;52.850;6.506;2023-05-07T10:47:12;22.48;;;20.38;;
55082;SDS011;40978;52.850;6.506;2023-05-07T10:52:13;21.55;;;19.65;;
55082;SDS011;40978;52.850;6.506;2023-05-07T10:54:43;24.88;;;20.38;;
55082;SDS011;40978;52.850;6.506;2023-05-07T11:00:41;21.27;;;19.17;;
55082;SDS011;40978;52.850;6.506;2023-05-07T11:05:30;19.73;;;18.00;;
55082;SDS011;40978;52.850;6.506;2023-05-07T11:07:57;21.25;;;19.15;;
55082;SDS011;40978;52.850;6.506;2023-05-07T11:13:18;20.20;;;18.35;;
55082;SDS011;40978;52.850;6.506;2023-05-07T11:16:23;20.75;;;18.77;;
55082;SDS011;40978;52.850;6.506;2023-05-07T11:18:56;20.25;;;18.35;;
55082;SDS011;40978;52.850;6.506;2023-05-07T11:21:39;20.27;;;18.47;;
55082;SDS011;40978;52.850;6.506;2023-05-07T11:24:12;19.63;;;17.73;;
55082;SDS011;40978;52.850;6.506;2023-05-07T11:26:58;18.60;;;16.83;;
55082;SDS011;40978;52.850;6.506;2023-05-07T11:29:25;19.00;;;17.30;;
55082;SDS011;40978;52.850;6.506;2023-05-07T11:31:54;19.33;;;17.48;;
55082;SDS011;40978;52.850;6.506;2023-05-07T11:34:21;18.90;;;17.20;;
55082;SDS011;40978;52.850;6.506;2023-05-07T11:36:48;19.30;;;17.60;;
55082;SDS011;40978;52.850;6.506;2023-05-07T11:39:24;19.73;;;17.92;;
55082;SDS011;40978;52.850;6.506;2023-05-07T11:41:51;19.10;;;17.30;;
55082;SDS011;40978;52.850;6.506;2023-05-07T11:44:17;20.08;;;18.25;;
55082;SDS011;40978;52.850;6.506;2023-05-07T11:46:43;18.77;;;17.15;;
55082;SDS011;40978;52.850;6.506;2023-05-07T11:49:09;19.13;;;17.27;;
55082;SDS011;40978;52.850;6.506;2023-05-07T11:51:35;19.08;;;17.38;;
55082;SDS011;40978;52.850;6.506;2023-05-07T11:54:03;18.02;;;16.33;;
55082;SDS011;40978;52.850;6.506;2023-05-07T11:56:29;18.60;;;16.90;;
55082;SDS011;40978;52.850;6.506;2023-05-07T11:58:58;18.42;;;16.67;;
55082;SDS011;40978;52.850;6.506;2023-05-07T12:01:24;18.15;;;16.45;;
55082;SDS011;40978;52.850;6.506;2023-05-07T12:03:50;16.70;;;15.20;;
55082;SDS011;40978;52.850;6.506;2023-05-07T12:06:16;16.33;;;14.65;;
55082;SDS011;40978;52.850;6.506;2023-05-07T12:08:42;16.35;;;14.95;;
55082;SDS011;40978;52.850;6.506;2023-05-07T12:11:14;16.13;;;14.75;;
55082;SDS011;40978;52.850;6.506;2023-05-07T12:13:43;15.70;;;14.40;;
55082;SDS011;40978;52.850;6.506;2023-05-07T12:16:08;16.17;;;14.77;;
55082;SDS011;40978;52.850;6.506;2023-05-07T12:18:35;16.15;;;14.65;;
55082;SDS011;40978;52.850;6.506;2023-05-07T12:21:02;15.85;;;14.23;;
55082;SDS011;40978;52.850;6.506;2023-05-07T12:23:30;16.15;;;14.65;;
55082;SDS011;40978;52.850;6.506;2023-05-07T12:25:56;16.48;;;14.88;;
55082;SDS011;40978;52.850;6.506;2023-05-07T12:28:21;17.52;;;15.93;;
55082;SDS011;40978;52.850;6.506;2023-05-07T12:30:48;16.40;;;15.02;;
55082;SDS011;40978;52.850;6.506;2023-05-07T12:33:19;17.15;;;15.57;;
55082;SDS011;40978;52.850;6.506;2023-05-07T12:35:49;15.82;;;14.35;;
55082;SDS011;40978;52.850;6.506;2023-05-07T12:38:16;15.55;;;14.13;;
55082;SDS011;40978;52.850;6.506;2023-05-07T12:43:19;14.43;;;13.02;;
55082;SDS011;40978;52.850;6.506;2023-05-07T12:45:46;14.88;;;13.55;;
55082;SDS011;40978;52.850;6.506;2023-05-07T12:48:13;14.32;;;13.02;;
55082;SDS011;40978;52.850;6.506;2023-05-07T12:50:38;15.57;;;14.18;;
55082;SDS011;40978;52.850;6.506;2023-05-07T12:53:05;14.70;;;13.40;;
55082;SDS011;40978;52.850;6.506;2023-05-07T12:55:39;15.98;;;14.38;;
55082;SDS011;40978;52.850;6.506;2023-05-07T12:58:28;14.70;;;13.32;;
55082;SDS011;40978;52.850;6.506;2023-05-07T13:00:56;14.20;;;12.85;;
55082;SDS011;40978;52.850;6.506;2023-05-07T13:03:29;14.55;;;13.35;;
55082;SDS011;40978;52.850;6.506;2023-05-07T13:06:02;15.75;;;14.35;;
55082;SDS011;40978;52.850;6.506;2023-05-07T13:08:33;15.45;;;14.05;;
55082;SDS011;40978;52.850;6.506;2023-05-07T13:11:02;15.48;;;14.10;;
55082;SDS011;40978;52.850;6.506;2023-05-07T13:13:32;15.10;;;13.60;;
55082;SDS011;40978;52.850;6.506;2023-05-07T13:16:00;15.10;;;13.80;;
55082;SDS011;40978;52.850;6.506;2023-05-07T13:18:29;13.98;;;12.60;;
55082;SDS011;40978;52.850;6.506;2023-05-07T13:20:56;14.23;;;12.93;;
55082;SDS011;40978;52.850;6.506;2023-05-07T13:23:22;14.23;;;12.93;;
55082;SDS011;40978;52.850;6.506;2023-05-07T13:25:48;13.82;;;12.63;;
55082;SDS011;40978;52.850;6.506;2023-05-07T13:28:15;15.98;;;14.38;;
55082;SDS011;40978;52.850;6.506;2023-05-07T13:30:41;15.27;;;13.90;;
55082;SDS011;40978;52.850;6.506;2023-05-07T13:33:07;15.15;;;13.73;;
55082;SDS011;40978;52.850;6.506;2023-05-07T13:35:33;15.73;;;14.10;;
55082;SDS011;40978;52.850;6.506;2023-05-07T13:37:59;14.77;;;13.48;;
55082;SDS011;40978;52.850;6.506;2023-05-07T13:40:25;15.30;;;13.90;;
55082;SDS011;40978;52.850;6.506;2023-05-07T13:42:51;16.13;;;14.50;;
55082;SDS011;40978;52.850;6.506;2023-05-07T13:45:19;17.13;;;15.52;;
55082;SDS011;40978;52.850;6.506;2023-05-07T13:47:46;16.08;;;14.32;;
55082;SDS011;40978;52.850;6.506;2023-05-07T13:50:12;16.33;;;14.80;;
55082;SDS011;40978;52.850;6.506;2023-05-07T13:52:42;15.93;;;14.43;;
55082;SDS011;40978;52.850;6.506;2023-05-07T13:55:11;15.32;;;13.98;;
55082;SDS011;40978;52.850;6.506;2023-05-07T13:57:37;14.80;;;13.43;;
55082;SDS011;40978;52.850;6.506;2023-05-07T14:00:04;14.30;;;13.00;;
55082;SDS011;40978;52.850;6.506;2023-05-07T14:02:30;14.02;;;12.73;;
55082;SDS011;40978;52.850;6.506;2023-05-07T14:04:56;17.33;;;15.43;;
55082;SDS011;40978;52.850;6.506;2023-05-07T14:07:22;16.75;;;15.20;;
55082;SDS011;40978;52.850;6.506;2023-05-07T14:09:48;16.45;;;14.93;;
55082;SDS011;40978;52.850;6.506;2023-05-07T14:12:13;17.73;;;16.13;;
55082;SDS011;40978;52.850;6.506;2023-05-07T14:14:39;14.80;;;13.40;;
55082;SDS011;40978;52.850;6.506;2023-05-07T14:17:05;14.73;;;13.25;;
55082;SDS011;40978;52.850;6.506;2023-05-07T14:19:30;14.18;;;12.88;;
55082;SDS011;40978;52.850;6.506;2023-05-07T14:21:56;13.23;;;12.13;;
55082;SDS011;40978;52.850;6.506;2023-05-07T14:24:22;14.93;;;13.52;;
55082;SDS011;40978;52.850;6.506;2023-05-07T14:26:49;15.73;;;14.27;;
55082;SDS011;40978;52.850;6.506;2023-05-07T14:29:14;15.25;;;13.88;;
55082;SDS011;40978;52.850;6.506;2023-05-07T14:31:43;16.25;;;14.63;;
55082;SDS011;40978;52.850;6.506;2023-05-07T14:34:10;14.85;;;13.55;;